sensor_id;sensor_type;location;lat;lon;timestamp;temperature;humidity
32895;DHT22;19251;49.484;8.260;2022-12-18T00:02:02;-1.80;27.80
32895;DHT22;19251;49.484;8.260;2022-12-18T00:07:04;-1.90;27.30
32895;DHT22;19251;49.484;8.260;2022-12-18T00:12:07;-2.40;27.50
32895;DHT22;19251;49.484;8.260;2022-12-18T00:17:16;-2.60;27.20
32895;DHT22;19251;49.484;8.260;2022-12-18T00:22:19;-2.30;27.20
32895;DHT22;19251;49.484;8.260;2022-12-18T00:27:21;-1.60;27.40
32895;DHT22;19251;49.484;8.260;2022-12-18T00:32:23;-1.50;27.60
32895;DHT22;19251;49.484;8.260;2022-12-18T00:37:25;-1.70;27.20
32895;DHT22;19251;49.484;8.260;2022-12-18T00:42:27;-1.60;27.60
32895;DHT22;19251;49.484;8.260;2022-12-18T00:47:48;-1.50;27.40
32895;DHT22;19251;49.484;8.260;2022-12-18T00:52:51;-1.90;27.20
32895;DHT22;19251;49.484;8.260;2022-12-18T00:57:53;-1.50;27.80
32895;DHT22;19251;49.484;8.260;2022-12-18T01:02:55;-1.90;27.60
32895;DHT22;19251;49.484;8.260;2022-12-18T01:07:59;-1.50;27.40
32895;DHT22;19251;49.484;8.260;2022-12-18T01:13:02;-1.80;27.00
32895;DHT22;19251;49.484;8.260;2022-12-18T01:18:04;-1.80;27.00
32895;DHT22;19251;49.484;8.260;2022-12-18T01:23:07;-1.80;26.90
32895;DHT22;19251;49.484;8.260;2022-12-18T01:28:09;-1.80;27.10
32895;DHT22;19251;49.484;8.260;2022-12-18T01:33:11;-1.80;27.10
32895;DHT22;19251;49.484;8.260;2022-12-18T01:38:14;-1.80;27.00
32895;DHT22;19251;49.484;8.260;2022-12-18T01:43:16;-2.40;27.30
32895;DHT22;19251;49.484;8.260;2022-12-18T01:48:18;-2.50;26.80
32895;DHT22;19251;49.484;8.260;2022-12-18T01:53:22;-1.90;27.10
32895;DHT22;19251;49.484;8.260;2022-12-18T01:58:53;-1.90;28.00
32895;DHT22;19251;49.484;8.260;2022-12-18T02:03:53;-1.90;27.40
32895;DHT22;19251;49.484;8.260;2022-12-18T02:09:15;-2.00;27.80
32895;DHT22;19251;49.484;8.260;2022-12-18T02:14:43;-1.90;27.30
32895;DHT22;19251;49.484;8.260;2022-12-18T02:25:43;-1.80;28.30
32895;DHT22;19251;49.484;8.260;2022-12-18T02:30:50;-1.90;28.30
32895;DHT22;19251;49.484;8.260;2022-12-18T02:35:56;-1.70;27.50
32895;DHT22;19251;49.484;8.260;2022-12-18T02:41:00;-1.90;27.80
32895;DHT22;19251;49.484;8.260;2022-12-18T02:46:27;-1.80;27.40
32895;DHT22;19251;49.484;8.260;2022-12-18T02:51:56;-1.70;27.80
32895;DHT22;19251;49.484;8.260;2022-12-18T02:57:10;-1.90;27.60
32895;DHT22;19251;49.484;8.260;2022-12-18T03:02:57;-1.40;27.90
32895;DHT22;19251;49.484;8.260;2022-12-18T03:08:02;-1.80;27.40
32895;DHT22;19251;49.484;8.260;2022-12-18T03:13:13;-1.80;27.10
32895;DHT22;19251;49.484;8.260;2022-12-18T03:18:43;-1.90;27.30
32895;DHT22;19251;49.484;8.260;2022-12-18T03:23:49;-1.60;26.70
32895;DHT22;19251;49.484;8.260;2022-12-18T03:29:01;-1.80;27.90
32895;DHT22;19251;49.484;8.260;2022-12-18T03:34:18;-2.10;26.60
32895;DHT22;19251;49.484;8.260;2022-12-18T03:39:24;-1.90;27.40
32895;DHT22;19251;49.484;8.260;2022-12-18T03:44:49;-2.10;27.80
32895;DHT22;19251;49.484;8.260;2022-12-18T03:50:14;-2.60;26.90
32895;DHT22;19251;49.484;8.260;2022-12-18T03:55:20;-1.80;28.10
32895;DHT22;19251;49.484;8.260;2022-12-18T04:00:25;-1.50;27.40
32895;DHT22;19251;49.484;8.260;2022-12-18T04:05:28;-1.50;27.80
32895;DHT22;19251;49.484;8.260;2022-12-18T04:10:32;-2.00;27.20
32895;DHT22;19251;49.484;8.260;2022-12-18T04:15:36;-2.60;26.80
32895;DHT22;19251;49.484;8.260;2022-12-18T04:20:40;-2.10;27.00
32895;DHT22;19251;49.484;8.260;2022-12-18T04:25:42;-1.80;27.40
32895;DHT22;19251;49.484;8.260;2022-12-18T04:30:48;-2.00;27.30
32895;DHT22;19251;49.484;8.260;2022-12-18T04:35:51;-2.00;27.20
32895;DHT22;19251;49.484;8.260;2022-12-18T04:40:53;-2.90;26.90
32895;DHT22;19251;49.484;8.260;2022-12-18T04:46:03;-2.30;26.90
32895;DHT22;19251;49.484;8.260;2022-12-18T04:51:06;-2.10;26.90
32895;DHT22;19251;49.484;8.260;2022-12-18T04:56:11;-2.10;27.20
32895;DHT22;19251;49.484;8.260;2022-12-18T05:01:16;-1.80;27.50
32895;DHT22;19251;49.484;8.260;2022-12-18T05:06:18;-2.10;27.90
32895;DHT22;19251;49.484;8.260;2022-12-18T05:11:20;-1.90;26.50
32895;DHT22;19251;49.484;8.260;2022-12-18T05:16:23;-2.20;27.20
32895;DHT22;19251;49.484;8.260;2022-12-18T05:21:25;-2.10;27.10
32895;DHT22;19251;49.484;8.260;2022-12-18T05:26:27;-1.70;27.30
32895;DHT22;19251;49.484;8.260;2022-12-18T05:31:29;-1.90;27.50
32895;DHT22;19251;49.484;8.260;2022-12-18T05:36:38;-1.90;27.40
32895;DHT22;19251;49.484;8.260;2022-12-18T05:41:40;-1.90;26.80
32895;DHT22;19251;49.484;8.260;2022-12-18T05:46:43;-2.50;26.70
32895;DHT22;19251;49.484;8.260;2022-12-18T05:51:46;-2.00;27.30
32895;DHT22;19251;49.484;8.260;2022-12-18T05:56:48;-1.90;27.40
32895;DHT22;19251;49.484;8.260;2022-12-18T06:01:50;-2.00;27.00
32895;DHT22;19251;49.484;8.260;2022-12-18T06:06:52;-2.00;27.00
32895;DHT22;19251;49.484;8.260;2022-12-18T06:11:54;-2.10;27.80
32895;DHT22;19251;49.484;8.260;2022-12-18T06:16:56;-2.40;26.60
32895;DHT22;19251;49.484;8.260;2022-12-18T06:21:59;-2.50;26.80
32895;DHT22;19251;49.484;8.260;2022-12-18T06:27:01;-1.90;27.20
32895;DHT22;19251;49.484;8.260;2022-12-18T06:32:04;-1.90;27.70
32895;DHT22;19251;49.484;8.260;2022-12-18T06:37:06;-1.90;26.50
32895;DHT22;19251;49.484;8.260;2022-12-18T06:42:08;-2.00;26.40
32895;DHT22;19251;49.484;8.260;2022-12-18T06:47:10;-1.80;26.70
32895;DHT22;19251;49.484;8.260;2022-12-18T06:52:12;-2.60;26.30
32895;DHT22;19251;49.484;8.260;2022-12-18T06:57:17;-2.00;26.90
32895;DHT22;19251;49.484;8.260;2022-12-18T07:02:19;-2.20;26.50
32895;DHT22;19251;49.484;8.260;2022-12-18T07:07:22;-2.80;25.70
32895;DHT22;19251;49.484;8.260;2022-12-18T07:12:24;-2.30;25.90
32895;DHT22;19251;49.484;8.260;2022-12-18T07:17:26;-2.40;26.20
32895;DHT22;19251;49.484;8.260;2022-12-18T07:22:28;-2.60;25.80
32895;DHT22;19251;49.484;8.260;2022-12-18T07:27:30;-2.50;26.40
32895;DHT22;19251;49.484;8.260;2022-12-18T07:32:33;-1.90;27.00
32895;DHT22;19251;49.484;8.260;2022-12-18T07:37:35;-2.50;26.70
32895;DHT22;19251;49.484;8.260;2022-12-18T07:42:37;-3.10;26.00
32895;DHT22;19251;49.484;8.260;2022-12-18T07:47:39;-3.00;26.30
32895;DHT22;19251;49.484;8.260;2022-12-18T07:52:43;-2.50;26.50
32895;DHT22;19251;49.484;8.260;2022-12-18T07:57:45;-2.30;27.10
32895;DHT22;19251;49.484;8.260;2022-12-18T08:02:54;-2.40;26.70
32895;DHT22;19251;49.484;8.260;2022-12-18T08:07:58;-2.80;26.40
32895;DHT22;19251;49.484;8.260;2022-12-18T08:13:00;-2.00;26.90
32895;DHT22;19251;49.484;8.260;2022-12-18T08:18:06;-2.00;26.80
32895;DHT22;19251;49.484;8.260;2022-12-18T08:23:15;-1.80;27.10
32895;DHT22;19251;49.484;8.260;2022-12-18T08:28:17;-2.40;26.70
32895;DHT22;19251;49.484;8.260;2022-12-18T08:33:20;-2.20;27.10
32895;DHT22;19251;49.484;8.260;2022-12-18T08:38:22;-1.60;26.80
32895;DHT22;19251;49.484;8.260;2022-12-18T08:43:25;-1.60;26.30
32895;DHT22;19251;49.484;8.260;2022-12-18T08:49:03;-1.70;26.60
32895;DHT22;19251;49.484;8.260;2022-12-18T08:54:06;-1.70;27.10
32895;DHT22;19251;49.484;8.260;2022-12-18T08:59:08;-1.50;27.00
32895;DHT22;19251;49.484;8.260;2022-12-18T09:04:20;-1.20;27.20
32895;DHT22;19251;49.484;8.260;2022-12-18T09:09:22;-1.70;26.70
32895;DHT22;19251;49.484;8.260;2022-12-18T09:14:24;-1.40;26.90
32895;DHT22;19251;49.484;8.260;2022-12-18T09:19:26;-1.20;26.80
32895;DHT22;19251;49.484;8.260;2022-12-18T09:24:28;-1.20;26.70
32895;DHT22;19251;49.484;8.260;2022-12-18T09:29:31;-1.30;26.00
32895;DHT22;19251;49.484;8.260;2022-12-18T09:34:34;-0.80;27.20
32895;DHT22;19251;49.484;8.260;2022-12-18T09:39:36;-1.60;26.30
32895;DHT22;19251;49.484;8.260;2022-12-18T09:44:39;-1.40;26.50
32895;DHT22;19251;49.484;8.260;2022-12-18T09:50:24;-0.20;27.20
32895;DHT22;19251;49.484;8.260;2022-12-18T10:00:24;-0.70;26.40
32895;DHT22;19251;49.484;8.260;2022-12-18T10:06:07;-0.50;26.50
32895;DHT22;19251;49.484;8.260;2022-12-18T10:11:12;-0.50;27.00
32895;DHT22;19251;49.484;8.260;2022-12-18T10:16:27;-0.10;26.70
32895;DHT22;19251;49.484;8.260;2022-12-18T10:26:38;-0.10;26.20
32895;DHT22;19251;49.484;8.260;2022-12-18T10:31:41;-0.60;26.90
32895;DHT22;19251;49.484;8.260;2022-12-18T10:36:44;0.50;27.00
32895;DHT22;19251;49.484;8.260;2022-12-18T10:41:46;0.20;26.20
32895;DHT22;19251;49.484;8.260;2022-12-18T10:46:55;0.40;27.00
32895;DHT22;19251;49.484;8.260;2022-12-18T10:52:19;0.60;26.10
32895;DHT22;19251;49.484;8.260;2022-12-18T11:02:37;0.60;25.90
32895;DHT22;19251;49.484;8.260;2022-12-18T11:07:48;0.80;25.80
32895;DHT22;19251;49.484;8.260;2022-12-18T11:12:52;0.50;26.10
32895;DHT22;19251;49.484;8.260;2022-12-18T11:17:54;1.10;26.10
32895;DHT22;19251;49.484;8.260;2022-12-18T11:23:11;1.20;24.20
32895;DHT22;19251;49.484;8.260;2022-12-18T11:28:47;1.40;25.80
32895;DHT22;19251;49.484;8.260;2022-12-18T11:44:41;1.20;25.00
32895;DHT22;19251;49.484;8.260;2022-12-18T11:49:48;1.40;25.40
32895;DHT22;19251;49.484;8.260;2022-12-18T11:54:52;1.50;24.50
32895;DHT22;19251;49.484;8.260;2022-12-18T12:10:50;1.90;24.80
32895;DHT22;19251;49.484;8.260;2022-12-18T12:26:45;2.00;24.20
32895;DHT22;19251;49.484;8.260;2022-12-18T12:32:17;2.40;24.10
32895;DHT22;19251;49.484;8.260;2022-12-18T12:37:44;2.50;24.20
32895;DHT22;19251;49.484;8.260;2022-12-18T12:42:53;2.00;24.70
32895;DHT22;19251;49.484;8.260;2022-12-18T12:48:36;2.30;23.90
32895;DHT22;19251;49.484;8.260;2022-12-18T12:53:40;2.30;24.60
32895;DHT22;19251;49.484;8.260;2022-12-18T12:58:58;1.70;24.10
32895;DHT22;19251;49.484;8.260;2022-12-18T13:04:26;2.60;24.50
32895;DHT22;19251;49.484;8.260;2022-12-18T13:09:33;2.50;24.40
32895;DHT22;19251;49.484;8.260;2022-12-18T13:14:40;2.30;22.90
32895;DHT22;19251;49.484;8.260;2022-12-18T13:19:43;2.00;23.40
32895;DHT22;19251;49.484;8.260;2022-12-18T13:24:45;2.20;22.90
32895;DHT22;19251;49.484;8.260;2022-12-18T13:29:47;2.10;23.50
32895;DHT22;19251;49.484;8.260;2022-12-18T13:35:37;2.00;23.20
32895;DHT22;19251;49.484;8.260;2022-12-18T13:51:09;1.90;24.30
32895;DHT22;19251;49.484;8.260;2022-12-18T13:56:23;1.90;23.00
32895;DHT22;19251;49.484;8.260;2022-12-18T14:01:26;1.70;23.80
32895;DHT22;19251;49.484;8.260;2022-12-18T14:06:29;1.90;23.40
32895;DHT22;19251;49.484;8.260;2022-12-18T14:11:33;1.70;22.90
32895;DHT22;19251;49.484;8.260;2022-12-18T14:16:36;1.70;23.10
32895;DHT22;19251;49.484;8.260;2022-12-18T14:21:40;1.70;23.40
32895;DHT22;19251;49.484;8.260;2022-12-18T14:26:43;1.50;23.40
32895;DHT22;19251;49.484;8.260;2022-12-18T14:31:45;0.80;23.50
32895;DHT22;19251;49.484;8.260;2022-12-18T14:36:54;1.50;23.60
32895;DHT22;19251;49.484;8.260;2022-12-18T14:41:57;1.40;23.40
32895;DHT22;19251;49.484;8.260;2022-12-18T14:46:59;1.40;23.10
32895;DHT22;19251;49.484;8.260;2022-12-18T14:52:13;1.40;23.50
32895;DHT22;19251;49.484;8.260;2022-12-18T14:57:31;1.20;23.10
32895;DHT22;19251;49.484;8.260;2022-12-18T15:02:36;1.10;23.20
32895;DHT22;19251;49.484;8.260;2022-12-18T15:07:44;0.50;23.60
32895;DHT22;19251;49.484;8.260;2022-12-18T15:12:49;1.10;24.20
32895;DHT22;19251;49.484;8.260;2022-12-18T15:28:43;0.70;23.20
32895;DHT22;19251;49.484;8.260;2022-12-18T15:38:55;0.70;23.10
32895;DHT22;19251;49.484;8.260;2022-12-18T15:44:23;0.50;23.30
32895;DHT22;19251;49.484;8.260;2022-12-18T15:49:25;0.40;23.20
32895;DHT22;19251;49.484;8.260;2022-12-18T15:54:27;0.40;23.30
32895;DHT22;19251;49.484;8.260;2022-12-18T15:59:48;0.40;23.90
32895;DHT22;19251;49.484;8.260;2022-12-18T16:04:52;0.40;23.30
32895;DHT22;19251;49.484;8.260;2022-12-18T16:09:55;0.40;24.10
32895;DHT22;19251;49.484;8.260;2022-12-18T16:15:00;0.50;24.10
32895;DHT22;19251;49.484;8.260;2022-12-18T16:20:02;0.50;24.60
32895;DHT22;19251;49.484;8.260;2022-12-18T16:25:05;0.50;24.50
32895;DHT22;19251;49.484;8.260;2022-12-18T16:30:16;0.70;24.40
32895;DHT22;19251;49.484;8.260;2022-12-18T16:35:19;0.80;23.70
32895;DHT22;19251;49.484;8.260;2022-12-18T16:40:21;0.70;24.50
32895;DHT22;19251;49.484;8.260;2022-12-18T16:45:26;0.80;24.70
32895;DHT22;19251;49.484;8.260;2022-12-18T16:50:35;0.70;23.80
32895;DHT22;19251;49.484;8.260;2022-12-18T16:55:37;0.70;24.60
32895;DHT22;19251;49.484;8.260;2022-12-18T17:00:39;0.50;24.10
32895;DHT22;19251;49.484;8.260;2022-12-18T17:05:42;0.60;23.80
32895;DHT22;19251;49.484;8.260;2022-12-18T17:10:44;0.10;24.40
32895;DHT22;19251;49.484;8.260;2022-12-18T17:15:46;0.50;23.90
32895;DHT22;19251;49.484;8.260;2022-12-18T17:20:48;0.60;24.80
32895;DHT22;19251;49.484;8.260;2022-12-18T17:25:53;0.50;24.30
32895;DHT22;19251;49.484;8.260;2022-12-18T17:30:56;0.70;25.20
32895;DHT22;19251;49.484;8.260;2022-12-18T17:35:58;0.70;25.10
32895;DHT22;19251;49.484;8.260;2022-12-18T17:41:02;0.60;25.50
32895;DHT22;19251;49.484;8.260;2022-12-18T17:46:05;0.00;25.10
32895;DHT22;19251;49.484;8.260;2022-12-18T17:51:10;0.70;24.90
32895;DHT22;19251;49.484;8.260;2022-12-18T17:56:15;0.30;24.40
32895;DHT22;19251;49.484;8.260;2022-12-18T18:01:20;0.30;25.50
32895;DHT22;19251;49.484;8.260;2022-12-18T18:06:23;0.30;26.40
32895;DHT22;19251;49.484;8.260;2022-12-18T18:11:25;0.30;24.70
32895;DHT22;19251;49.484;8.260;2022-12-18T18:16:48;0.40;25.40
32895;DHT22;19251;49.484;8.260;2022-12-18T18:21:52;0.50;25.50
32895;DHT22;19251;49.484;8.260;2022-12-18T18:26:55;0.60;25.50
32895;DHT22;19251;49.484;8.260;2022-12-18T18:32:00;0.80;25.60
32895;DHT22;19251;49.484;8.260;2022-12-18T18:37:02;0.80;25.90
32895;DHT22;19251;49.484;8.260;2022-12-18T18:42:04;0.90;26.00
32895;DHT22;19251;49.484;8.260;2022-12-18T18:47:06;0.90;25.40
32895;DHT22;19251;49.484;8.260;2022-12-18T18:52:10;0.90;25.40
32895;DHT22;19251;49.484;8.260;2022-12-18T18:57:12;1.20;26.00
32895;DHT22;19251;49.484;8.260;2022-12-18T19:02:26;1.10;25.50
32895;DHT22;19251;49.484;8.260;2022-12-18T19:07:28;1.10;25.80
32895;DHT22;19251;49.484;8.260;2022-12-18T19:12:33;1.40;25.30
32895;DHT22;19251;49.484;8.260;2022-12-18T19:17:55;1.30;26.50
32895;DHT22;19251;49.484;8.260;2022-12-18T19:22:57;1.30;25.20
32895;DHT22;19251;49.484;8.260;2022-12-18T19:27:59;1.40;25.90
32895;DHT22;19251;49.484;8.260;2022-12-18T19:33:01;1.40;25.80
32895;DHT22;19251;49.484;8.260;2022-12-18T19:38:23;1.50;25.90
32895;DHT22;19251;49.484;8.260;2022-12-18T19:43:26;1.60;25.90
32895;DHT22;19251;49.484;8.260;2022-12-18T19:48:28;1.40;25.70
32895;DHT22;19251;49.484;8.260;2022-12-18T19:53:30;1.50;25.10
32895;DHT22;19251;49.484;8.260;2022-12-18T19:58:32;1.60;25.20
32895;DHT22;19251;49.484;8.260;2022-12-18T20:03:35;1.60;25.80
32895;DHT22;19251;49.484;8.260;2022-12-18T20:08:37;1.60;25.70
32895;DHT22;19251;49.484;8.260;2022-12-18T20:13:39;1.60;25.60
32895;DHT22;19251;49.484;8.260;2022-12-18T20:18:42;1.80;25.70
32895;DHT22;19251;49.484;8.260;2022-12-18T20:23:45;1.50;25.50
32895;DHT22;19251;49.484;8.260;2022-12-18T20:28:47;1.70;25.70
32895;DHT22;19251;49.484;8.260;2022-12-18T20:33:50;1.70;25.00
32895;DHT22;19251;49.484;8.260;2022-12-18T20:38:55;1.70;25.60
32895;DHT22;19251;49.484;8.260;2022-12-18T20:44:05;1.70;25.50
32895;DHT22;19251;49.484;8.260;2022-12-18T20:49:25;1.70;25.00
32895;DHT22;19251;49.484;8.260;2022-12-18T20:54:28;1.80;25.00
32895;DHT22;19251;49.484;8.260;2022-12-18T20:59:30;1.80;25.60
32895;DHT22;19251;49.484;8.260;2022-12-18T21:04:32;2.20;25.70
32895;DHT22;19251;49.484;8.260;2022-12-18T21:14:39;1.80;25.00
32895;DHT22;19251;49.484;8.260;2022-12-18T21:19:41;1.90;25.00
32895;DHT22;19251;49.484;8.260;2022-12-18T21:24:44;1.90;25.00
32895;DHT22;19251;49.484;8.260;2022-12-18T21:29:46;1.90;24.90
32895;DHT22;19251;49.484;8.260;2022-12-18T21:34:51;1.90;25.60
32895;DHT22;19251;49.484;8.260;2022-12-18T21:39:53;1.90;24.90
32895;DHT22;19251;49.484;8.260;2022-12-18T21:44:56;1.90;24.80
32895;DHT22;19251;49.484;8.260;2022-12-18T21:49:58;1.90;24.80
32895;DHT22;19251;49.484;8.260;2022-12-18T21:55:00;2.00;24.90
32895;DHT22;19251;49.484;8.260;2022-12-18T22:00:11;1.90;24.80
32895;DHT22;19251;49.484;8.260;2022-12-18T22:05:20;2.00;24.90
32895;DHT22;19251;49.484;8.260;2022-12-18T22:10:22;2.00;25.10
32895;DHT22;19251;49.484;8.260;2022-12-18T22:15:24;2.00;24.70
32895;DHT22;19251;49.484;8.260;2022-12-18T22:20:27;2.00;24.80
32895;DHT22;19251;49.484;8.260;2022-12-18T22:25:31;2.10;25.00
32895;DHT22;19251;49.484;8.260;2022-12-18T22:30:35;2.00;24.80
32895;DHT22;19251;49.484;8.260;2022-12-18T22:35:37;2.10;25.00
32895;DHT22;19251;49.484;8.260;2022-12-18T22:45:42;2.10;24.90
32895;DHT22;19251;49.484;8.260;2022-12-18T22:50:48;2.10;24.90
32895;DHT22;19251;49.484;8.260;2022-12-18T22:55:59;2.00;25.00
32895;DHT22;19251;49.484;8.260;2022-12-18T23:06:05;2.10;24.90
32895;DHT22;19251;49.484;8.260;2022-12-18T23:11:09;2.20;25.10
32895;DHT22;19251;49.484;8.260;2022-12-18T23:16:14;2.20;24.80
32895;DHT22;19251;49.484;8.260;2022-12-18T23:21:18;2.20;24.90
32895;DHT22;19251;49.484;8.260;2022-12-18T23:26:24;2.20;24.70
32895;DHT22;19251;49.484;8.260;2022-12-18T23:31:29;2.20;24.80
32895;DHT22;19251;49.484;8.260;2022-12-18T23:36:32;2.20;24.70
32895;DHT22;19251;49.484;8.260;2022-12-18T23:41:47;2.10;24.60
32895;DHT22;19251;49.484;8.260;2022-12-18T23:46:49;2.20;24.60
32895;DHT22;19251;49.484;8.260;2022-12-18T23:51:52;2.30;25.40
32895;DHT22;19251;49.484;8.260;2022-12-18T23:56:54;2.20;24.60
